Terminal Aerodrome Forecast
Issued by NWS State College, PA

Home | Current Version | Previous Version | Text Only | Print | Product List | Glossary On
Versions: 1 2 3 4 5 6 7 8 9 10 11 12 13 14 15 16 17 18 19 20 21 22 23 24 25 26 27 28 29 30 31 32 33 34 35 36 37 38 39 40 41 42 43 44
000
FTUS41 KCTP 031910 AAA
TAFIPT
TAF AMD
KIPT 031910Z 0319/0418 25011G18KT P6SM VCSH BKN050 BKN250
     FM032200 25010G20KT P6SM -SHRA VCTS BKN050CB
     FM040100 23006KT P6SM SCT035 BKN060=

USA.gov is the U.S. government's official web portal to all federal, state and local government web resources and services.